sensor_id;sensor_type;location;lat;lon;timestamp;temperature;humidity
12704;DHT22;6416;52.182;7.650;2023-04-01T00:00:00;13.50;80.00
12704;DHT22;6416;52.182;7.650;2023-04-01T00:02:26;13.50;80.10
12704;DHT22;6416;52.182;7.650;2023-04-01T00:04:51;13.50;80.20
12704;DHT22;6416;52.182;7.650;2023-04-01T00:07:17;13.50;80.30
12704;DHT22;6416;52.182;7.650;2023-04-01T00:09:42;13.50;80.30
12704;DHT22;6416;52.182;7.650;2023-04-01T00:12:08;13.40;80.30
12704;DHT22;6416;52.182;7.650;2023-04-01T00:14:33;13.40;80.30
12704;DHT22;6416;52.182;7.650;2023-04-01T00:16:58;13.50;80.40
12704;DHT22;6416;52.182;7.650;2023-04-01T00:19:24;13.50;80.60
12704;DHT22;6416;52.182;7.650;2023-04-01T00:21:49;13.40;80.50
12704;DHT22;6416;52.182;7.650;2023-04-01T00:24:15;13.40;80.60
12704;DHT22;6416;52.182;7.650;2023-04-01T00:26:40;13.50;80.80
12704;DHT22;6416;52.182;7.650;2023-04-01T00:29:06;13.40;80.70
12704;DHT22;6416;52.182;7.650;2023-04-01T00:31:31;13.40;80.70
12704;DHT22;6416;52.182;7.650;2023-04-01T00:33:57;13.40;80.70
12704;DHT22;6416;52.182;7.650;2023-04-01T00:36:22;13.40;80.70
12704;DHT22;6416;52.182;7.650;2023-04-01T00:38:48;13.40;80.80
12704;DHT22;6416;52.182;7.650;2023-04-01T00:41:15;13.40;80.80
12704;DHT22;6416;52.182;7.650;2023-04-01T00:43:42;13.30;80.70
12704;DHT22;6416;52.182;7.650;2023-04-01T00:46:07;13.30;80.80
12704;DHT22;6416;52.182;7.650;2023-04-01T00:48:35;13.30;80.80
12704;DHT22;6416;52.182;7.650;2023-04-01T00:51:23;13.30;80.80
12704;DHT22;6416;52.182;7.650;2023-04-01T00:53:52;13.30;80.90
12704;DHT22;6416;52.182;7.650;2023-04-01T00:56:22;13.30;80.80
12704;DHT22;6416;52.182;7.650;2023-04-01T00:58:58;13.30;81.00
12704;DHT22;6416;52.182;7.650;2023-04-01T01:01:25;13.30;81.10
12704;DHT22;6416;52.182;7.650;2023-04-01T01:03:52;13.30;81.00
12704;DHT22;6416;52.182;7.650;2023-04-01T01:09:03;13.30;81.00
12704;DHT22;6416;52.182;7.650;2023-04-01T01:11:44;13.30;81.20
12704;DHT22;6416;52.182;7.650;2023-04-01T01:14:29;13.30;81.20
12704;DHT22;6416;52.182;7.650;2023-04-01T01:17:06;13.30;81.00
12704;DHT22;6416;52.182;7.650;2023-04-01T01:27:41;13.30;80.90
12704;DHT22;6416;52.182;7.650;2023-04-01T01:30:20;13.20;81.00
12704;DHT22;6416;52.182;7.650;2023-04-01T01:33:02;13.20;81.30
12704;DHT22;6416;52.182;7.650;2023-04-01T01:38:23;13.20;81.20
12704;DHT22;6416;52.182;7.650;2023-04-01T01:40:50;13.30;81.80
12704;DHT22;6416;52.182;7.650;2023-04-01T01:43:21;13.20;81.40
12704;DHT22;6416;52.182;7.650;2023-04-01T01:45:51;13.20;81.50
12704;DHT22;6416;52.182;7.650;2023-04-01T01:48:19;13.20;81.60
12704;DHT22;6416;52.182;7.650;2023-04-01T01:50:45;13.20;81.60
12704;DHT22;6416;52.182;7.650;2023-04-01T01:53:12;13.20;81.70
12704;DHT22;6416;52.182;7.650;2023-04-01T01:55:41;13.20;81.60
12704;DHT22;6416;52.182;7.650;2023-04-01T02:00:37;13.20;81.80
12704;DHT22;6416;52.182;7.650;2023-04-01T02:03:04;13.20;81.80
12704;DHT22;6416;52.182;7.650;2023-04-01T02:05:30;13.20;81.90
12704;DHT22;6416;52.182;7.650;2023-04-01T02:08:07;13.20;81.80
12704;DHT22;6416;52.182;7.650;2023-04-01T02:10:38;13.20;82.00
12704;DHT22;6416;52.182;7.650;2023-04-01T02:13:15;13.20;82.60
12704;DHT22;6416;52.182;7.650;2023-04-01T02:15:44;13.20;82.00
12704;DHT22;6416;52.182;7.650;2023-04-01T02:18:12;13.20;81.90
12704;DHT22;6416;52.182;7.650;2023-04-01T02:20:38;13.20;81.90
12704;DHT22;6416;52.182;7.650;2023-04-01T02:23:05;13.10;81.80
12704;DHT22;6416;52.182;7.650;2023-04-01T02:25:35;13.10;81.90
12704;DHT22;6416;52.182;7.650;2023-04-01T02:28:04;13.20;82.00
12704;DHT22;6416;52.182;7.650;2023-04-01T02:30:32;13.10;82.00
12704;DHT22;6416;52.182;7.650;2023-04-01T02:32:59;13.20;82.10
12704;DHT22;6416;52.182;7.650;2023-04-01T02:35:25;13.10;81.90
12704;DHT22;6416;52.182;7.650;2023-04-01T02:37:53;13.10;82.00
12704;DHT22;6416;52.182;7.650;2023-04-01T02:40:19;13.10;82.10
12704;DHT22;6416;52.182;7.650;2023-04-01T02:42:45;13.10;82.00
12704;DHT22;6416;52.182;7.650;2023-04-01T02:45:11;13.10;82.00
12704;DHT22;6416;52.182;7.650;2023-04-01T02:47:37;13.10;82.10
12704;DHT22;6416;52.182;7.650;2023-04-01T02:50:03;13.10;82.20
12704;DHT22;6416;52.182;7.650;2023-04-01T02:52:29;13.10;82.20
12704;DHT22;6416;52.182;7.650;2023-04-01T02:54:55;13.10;82.10
12704;DHT22;6416;52.182;7.650;2023-04-01T02:57:21;13.10;82.20
12704;DHT22;6416;52.182;7.650;2023-04-01T02:59:47;13.10;82.20
12704;DHT22;6416;52.182;7.650;2023-04-01T03:02:13;13.10;82.20
12704;DHT22;6416;52.182;7.650;2023-04-01T03:04:38;13.10;82.30
12704;DHT22;6416;52.182;7.650;2023-04-01T03:07:04;13.10;82.30
12704;DHT22;6416;52.182;7.650;2023-04-01T03:09:29;13.10;82.50
12704;DHT22;6416;52.182;7.650;2023-04-01T03:11:55;13.10;82.50
12704;DHT22;6416;52.182;7.650;2023-04-01T03:14:20;13.10;82.50
12704;DHT22;6416;52.182;7.650;2023-04-01T03:16:46;13.00;82.50
12704;DHT22;6416;52.182;7.650;2023-04-01T03:19:11;13.00;82.70
12704;DHT22;6416;52.182;7.650;2023-04-01T03:21:37;13.00;82.70
12704;DHT22;6416;52.182;7.650;2023-04-01T03:24:03;13.00;82.90
12704;DHT22;6416;52.182;7.650;2023-04-01T03:26:28;13.00;83.00
12704;DHT22;6416;52.182;7.650;2023-04-01T03:28:54;13.00;83.10
12704;DHT22;6416;52.182;7.650;2023-04-01T03:31:19;13.00;83.20
12704;DHT22;6416;52.182;7.650;2023-04-01T03:33:45;13.00;83.30
12704;DHT22;6416;52.182;7.650;2023-04-01T03:36:11;13.00;83.50
12704;DHT22;6416;52.182;7.650;2023-04-01T03:38:36;13.00;83.60
12704;DHT22;6416;52.182;7.650;2023-04-01T03:41:01;13.00;83.70
12704;DHT22;6416;52.182;7.650;2023-04-01T03:43:27;13.00;83.80
12704;DHT22;6416;52.182;7.650;2023-04-01T03:45:53;12.90;83.80
12704;DHT22;6416;52.182;7.650;2023-04-01T03:48:18;13.00;84.10
12704;DHT22;6416;52.182;7.650;2023-04-01T03:50:44;12.90;84.10
12704;DHT22;6416;52.182;7.650;2023-04-01T03:53:10;12.90;84.40
12704;DHT22;6416;52.182;7.650;2023-04-01T03:55:36;12.90;84.50
12704;DHT22;6416;52.182;7.650;2023-04-01T03:58:02;12.90;84.60
12704;DHT22;6416;52.182;7.650;2023-04-01T04:00:29;12.90;84.90
12704;DHT22;6416;52.182;7.650;2023-04-01T04:02:54;12.90;85.10
12704;DHT22;6416;52.182;7.650;2023-04-01T04:05:20;12.90;85.30
12704;DHT22;6416;52.182;7.650;2023-04-01T04:07:45;12.90;85.40
12704;DHT22;6416;52.182;7.650;2023-04-01T04:10:11;12.90;85.40
12704;DHT22;6416;52.182;7.650;2023-04-01T04:12:36;12.90;85.50
12704;DHT22;6416;52.182;7.650;2023-04-01T04:15:02;12.90;85.70
12704;DHT22;6416;52.182;7.650;2023-04-01T04:17:27;12.90;85.90
12704;DHT22;6416;52.182;7.650;2023-04-01T04:19:53;12.90;86.00
12704;DHT22;6416;52.182;7.650;2023-04-01T04:22:18;12.90;86.20
12704;DHT22;6416;52.182;7.650;2023-04-01T04:24:44;12.90;86.20
12704;DHT22;6416;52.182;7.650;2023-04-01T04:27:09;12.90;86.40
12704;DHT22;6416;52.182;7.650;2023-04-01T04:29:35;12.90;86.50
12704;DHT22;6416;52.182;7.650;2023-04-01T04:32:00;12.90;86.60
12704;DHT22;6416;52.182;7.650;2023-04-01T04:34:26;12.90;86.70
12704;DHT22;6416;52.182;7.650;2023-04-01T04:36:51;12.90;86.70
12704;DHT22;6416;52.182;7.650;2023-04-01T04:39:17;12.90;86.80
12704;DHT22;6416;52.182;7.650;2023-04-01T04:41:43;12.90;86.80
12704;DHT22;6416;52.182;7.650;2023-04-01T04:44:08;12.90;86.90
12704;DHT22;6416;52.182;7.650;2023-04-01T04:46:33;13.00;87.20
12704;DHT22;6416;52.182;7.650;2023-04-01T04:48:59;12.90;87.10
12704;DHT22;6416;52.182;7.650;2023-04-01T04:51:25;13.00;87.30
12704;DHT22;6416;52.182;7.650;2023-04-01T04:53:50;12.90;87.20
12704;DHT22;6416;52.182;7.650;2023-04-01T04:56:20;12.90;87.30
12704;DHT22;6416;52.182;7.650;2023-04-01T04:58:47;13.00;87.50
12704;DHT22;6416;52.182;7.650;2023-04-01T05:01:14;13.00;87.50
12704;DHT22;6416;52.182;7.650;2023-04-01T05:03:41;13.00;87.60
12704;DHT22;6416;52.182;7.650;2023-04-01T05:06:08;13.00;87.60
12704;DHT22;6416;52.182;7.650;2023-04-01T05:08:34;13.00;87.60
12704;DHT22;6416;52.182;7.650;2023-04-01T05:11:00;13.00;87.60
12704;DHT22;6416;52.182;7.650;2023-04-01T05:13:26;13.00;87.60
12704;DHT22;6416;52.182;7.650;2023-04-01T05:15:52;13.00;87.70
12704;DHT22;6416;52.182;7.650;2023-04-01T05:18:17;13.00;87.70
12704;DHT22;6416;52.182;7.650;2023-04-01T05:20:51;13.00;87.80
12704;DHT22;6416;52.182;7.650;2023-04-01T05:23:17;13.00;87.80
12704;DHT22;6416;52.182;7.650;2023-04-01T05:25:43;13.00;88.00
12704;DHT22;6416;52.182;7.650;2023-04-01T05:28:09;13.00;88.00
12704;DHT22;6416;52.182;7.650;2023-04-01T05:30:34;13.00;88.20
12704;DHT22;6416;52.182;7.650;2023-04-01T05:33:00;13.00;88.30
12704;DHT22;6416;52.182;7.650;2023-04-01T05:35:25;13.00;88.20
12704;DHT22;6416;52.182;7.650;2023-04-01T05:37:51;13.00;88.10
12704;DHT22;6416;52.182;7.650;2023-04-01T05:40:16;13.00;88.20
12704;DHT22;6416;52.182;7.650;2023-04-01T05:42:42;13.00;88.20
12704;DHT22;6416;52.182;7.650;2023-04-01T05:45:08;13.00;88.20
12704;DHT22;6416;52.182;7.650;2023-04-01T05:47:34;13.00;88.30
12704;DHT22;6416;52.182;7.650;2023-04-01T05:49:59;13.00;88.30
12704;DHT22;6416;52.182;7.650;2023-04-01T05:52:25;13.00;88.30
12704;DHT22;6416;52.182;7.650;2023-04-01T05:54:50;13.00;88.30
12704;DHT22;6416;52.182;7.650;2023-04-01T05:57:16;13.00;88.40
12704;DHT22;6416;52.182;7.650;2023-04-01T05:59:41;13.00;88.50
12704;DHT22;6416;52.182;7.650;2023-04-01T06:02:09;13.00;88.50
12704;DHT22;6416;52.182;7.650;2023-04-01T06:04:37;13.10;88.70
12704;DHT22;6416;52.182;7.650;2023-04-01T06:07:13;13.10;88.70
12704;DHT22;6416;52.182;7.650;2023-04-01T06:09:39;13.10;88.70
12704;DHT22;6416;52.182;7.650;2023-04-01T06:12:29;13.20;89.00
12704;DHT22;6416;52.182;7.650;2023-04-01T06:23:39;13.10;88.50
12704;DHT22;6416;52.182;7.650;2023-04-01T06:26:21;13.10;88.60
12704;DHT22;6416;52.182;7.650;2023-04-01T06:29:24;13.20;88.70
12704;DHT22;6416;52.182;7.650;2023-04-01T06:48:41;13.10;89.00
12704;DHT22;6416;52.182;7.650;2023-04-01T06:53:52;13.10;89.20
12704;DHT22;6416;52.182;7.650;2023-04-01T06:56:21;13.10;89.30
12704;DHT22;6416;52.182;7.650;2023-04-01T06:58:54;13.10;89.60
12704;DHT22;6416;52.182;7.650;2023-04-01T07:01:26;13.10;89.70
12704;DHT22;6416;52.182;7.650;2023-04-01T07:03:59;13.10;89.90
12704;DHT22;6416;52.182;7.650;2023-04-01T07:06:32;13.10;90.00
12704;DHT22;6416;52.182;7.650;2023-04-01T07:09:04;13.20;90.10
12704;DHT22;6416;52.182;7.650;2023-04-01T07:11:35;13.20;90.20
12704;DHT22;6416;52.182;7.650;2023-04-01T07:17:14;13.30;90.30
12704;DHT22;6416;52.182;7.650;2023-04-01T07:19:47;13.30;90.40
12704;DHT22;6416;52.182;7.650;2023-04-01T07:22:29;13.40;90.50
12704;DHT22;6416;52.182;7.650;2023-04-01T07:24:59;13.40;90.50
12704;DHT22;6416;52.182;7.650;2023-04-01T07:27:26;13.50;90.70
12704;DHT22;6416;52.182;7.650;2023-04-01T07:29:51;13.50;90.80
12704;DHT22;6416;52.182;7.650;2023-04-01T07:32:35;13.50;90.80
12704;DHT22;6416;52.182;7.650;2023-04-01T07:35:23;13.60;90.70
12704;DHT22;6416;52.182;7.650;2023-04-01T07:41:44;13.70;90.60
12704;DHT22;6416;52.182;7.650;2023-04-01T07:49:56;13.90;90.70
12704;DHT22;6416;52.182;7.650;2023-04-01T08:04:08;14.20;90.90
12704;DHT22;6416;52.182;7.650;2023-04-01T08:09:48;14.30;90.80
12704;DHT22;6416;52.182;7.650;2023-04-01T08:22:35;14.40;90.40
12704;DHT22;6416;52.182;7.650;2023-04-01T08:25:05;14.40;90.40
12704;DHT22;6416;52.182;7.650;2023-04-01T08:27:41;14.40;90.40
12704;DHT22;6416;52.182;7.650;2023-04-01T08:30:26;14.40;90.30
12704;DHT22;6416;52.182;7.650;2023-04-01T08:35:31;14.40;90.30
12704;DHT22;6416;52.182;7.650;2023-04-01T08:38:01;14.40;90.50
12704;DHT22;6416;52.182;7.650;2023-04-01T08:49:10;14.70;91.70
12704;DHT22;6416;52.182;7.650;2023-04-01T08:57:45;15.00;92.00
12704;DHT22;6416;52.182;7.650;2023-04-01T09:17:21;15.60;90.20
12704;DHT22;6416;52.182;7.650;2023-04-01T09:19:59;15.70;90.00
12704;DHT22;6416;52.182;7.650;2023-04-01T09:22:34;15.60;90.50
12704;DHT22;6416;52.182;7.650;2023-04-01T09:28:10;15.70;90.40
12704;DHT22;6416;52.182;7.650;2023-04-01T09:31:04;15.70;91.10
12704;DHT22;6416;52.182;7.650;2023-04-01T09:36:38;15.90;91.00
12704;DHT22;6416;52.182;7.650;2023-04-01T09:47:37;16.30;90.90
12704;DHT22;6416;52.182;7.650;2023-04-01T09:55:44;16.40;90.40
12704;DHT22;6416;52.182;7.650;2023-04-01T10:01:41;16.60;90.60
12704;DHT22;6416;52.182;7.650;2023-04-01T10:15:29;16.80;89.50
12704;DHT22;6416;52.182;7.650;2023-04-01T10:26:55;17.40;90.90
12704;DHT22;6416;52.182;7.650;2023-04-01T10:35:14;17.80;88.40
12704;DHT22;6416;52.182;7.650;2023-04-01T10:38:17;17.90;87.40
12704;DHT22;6416;52.182;7.650;2023-04-01T10:46:35;17.70;85.40
12704;DHT22;6416;52.182;7.650;2023-04-01T11:00:36;17.00;83.00
12704;DHT22;6416;52.182;7.650;2023-04-01T11:16:19;16.80;85.80
12704;DHT22;6416;52.182;7.650;2023-04-01T11:35:29;17.10;87.50
12704;DHT22;6416;52.182;7.650;2023-04-01T11:41:01;17.20;86.70
12704;DHT22;6416;52.182;7.650;2023-04-01T11:43:38;17.30;87.50
12704;DHT22;6416;52.182;7.650;2023-04-01T11:46:11;17.30;86.30
12704;DHT22;6416;52.182;7.650;2023-04-01T11:48:51;17.40;88.10
12704;DHT22;6416;52.182;7.650;2023-04-01T11:54:22;17.60;87.90
12704;DHT22;6416;52.182;7.650;2023-04-01T12:02:55;17.90;87.20
12704;DHT22;6416;52.182;7.650;2023-04-01T12:05:42;18.00;85.90
12704;DHT22;6416;52.182;7.650;2023-04-01T12:08:30;18.10;86.00
12704;DHT22;6416;52.182;7.650;2023-04-01T12:13:42;18.20;85.40
12704;DHT22;6416;52.182;7.650;2023-04-01T12:16:29;18.20;84.40
12704;DHT22;6416;52.182;7.650;2023-04-01T12:21:45;18.10;85.10
12704;DHT22;6416;52.182;7.650;2023-04-01T12:25:22;18.10;84.60
12704;DHT22;6416;52.182;7.650;2023-04-01T12:32:40;17.90;84.20
12704;DHT22;6416;52.182;7.650;2023-04-01T12:35:22;17.80;83.40
12704;DHT22;6416;52.182;7.650;2023-04-01T12:38:26;17.80;83.60
12704;DHT22;6416;52.182;7.650;2023-04-01T12:40:56;17.90;83.60
12704;DHT22;6416;52.182;7.650;2023-04-01T12:46:02;18.00;87.50
12704;DHT22;6416;52.182;7.650;2023-04-01T12:48:41;18.10;86.60
12704;DHT22;6416;52.182;7.650;2023-04-01T13:02:00;18.50;86.90
12704;DHT22;6416;52.182;7.650;2023-04-01T13:04:40;18.50;86.20
12704;DHT22;6416;52.182;7.650;2023-04-01T13:10:20;18.70;84.50
12704;DHT22;6416;52.182;7.650;2023-04-01T13:16:02;18.70;82.10
12704;DHT22;6416;52.182;7.650;2023-04-01T13:18:48;18.60;81.50
12704;DHT22;6416;52.182;7.650;2023-04-01T13:21:23;18.50;83.10
12704;DHT22;6416;52.182;7.650;2023-04-01T13:24:03;18.50;82.80
12704;DHT22;6416;52.182;7.650;2023-04-01T13:29:29;18.20;80.90
12704;DHT22;6416;52.182;7.650;2023-04-01T13:32:01;18.10;79.40
12704;DHT22;6416;52.182;7.650;2023-04-01T13:42:29;17.50;81.30
12704;DHT22;6416;52.182;7.650;2023-04-01T13:50:55;17.30;80.40
12704;DHT22;6416;52.182;7.650;2023-04-01T13:58:58;17.10;80.90
12704;DHT22;6416;52.182;7.650;2023-04-01T14:07:41;16.90;82.20
12704;DHT22;6416;52.182;7.650;2023-04-01T14:16:49;16.70;81.80
12704;DHT22;6416;52.182;7.650;2023-04-01T14:25:25;16.60;84.10
12704;DHT22;6416;52.182;7.650;2023-04-01T14:28:06;16.60;82.80
12704;DHT22;6416;52.182;7.650;2023-04-01T14:31:15;16.60;83.00
12704;DHT22;6416;52.182;7.650;2023-04-01T14:40:28;16.50;81.90
12704;DHT22;6416;52.182;7.650;2023-04-01T14:48:52;16.50;82.50
12704;DHT22;6416;52.182;7.650;2023-04-01T14:51:31;16.40;83.50
12704;DHT22;6416;52.182;7.650;2023-04-01T14:54:14;16.40;83.70
12704;DHT22;6416;52.182;7.650;2023-04-01T14:57:01;16.40;83.50
12704;DHT22;6416;52.182;7.650;2023-04-01T14:59:29;16.30;84.00
12704;DHT22;6416;52.182;7.650;2023-04-01T15:02:03;16.30;84.20
12704;DHT22;6416;52.182;7.650;2023-04-01T15:16:55;16.40;84.60
12704;DHT22;6416;52.182;7.650;2023-04-01T15:22:05;16.50;85.30
12704;DHT22;6416;52.182;7.650;2023-04-01T15:27:15;16.50;83.30
12704;DHT22;6416;52.182;7.650;2023-04-01T15:35:27;16.50;82.40
12704;DHT22;6416;52.182;7.650;2023-04-01T15:43:41;16.40;82.30
12704;DHT22;6416;52.182;7.650;2023-04-01T15:46:40;16.40;83.10
12704;DHT22;6416;52.182;7.650;2023-04-01T16:00:25;16.20;82.80
12704;DHT22;6416;52.182;7.650;2023-04-01T16:06:17;16.10;81.20
12704;DHT22;6416;52.182;7.650;2023-04-01T16:09:09;16.10;81.50
12704;DHT22;6416;52.182;7.650;2023-04-01T16:12:07;16.00;82.10
12704;DHT22;6416;52.182;7.650;2023-04-01T16:20:22;15.80;80.50
12704;DHT22;6416;52.182;7.650;2023-04-01T16:22:59;15.70;80.00
12704;DHT22;6416;52.182;7.650;2023-04-01T16:28:30;15.60;80.20
12704;DHT22;6416;52.182;7.650;2023-04-01T16:34:09;15.40;80.40
12704;DHT22;6416;52.182;7.650;2023-04-01T16:36:48;15.40;80.70
12704;DHT22;6416;52.182;7.650;2023-04-01T16:39:33;15.30;80.70
12704;DHT22;6416;52.182;7.650;2023-04-01T16:44:51;15.20;81.20
12704;DHT22;6416;52.182;7.650;2023-04-01T16:47:21;15.10;80.40
12704;DHT22;6416;52.182;7.650;2023-04-01T16:49:54;15.00;80.10
12704;DHT22;6416;52.182;7.650;2023-04-01T16:58:27;14.90;80.60
12704;DHT22;6416;52.182;7.650;2023-04-01T17:01:08;14.80;79.80
12704;DHT22;6416;52.182;7.650;2023-04-01T17:03:51;14.70;79.80
12704;DHT22;6416;52.182;7.650;2023-04-01T17:14:37;14.60;79.50
12704;DHT22;6416;52.182;7.650;2023-04-01T17:17:45;14.60;80.60
12704;DHT22;6416;52.182;7.650;2023-04-01T17:28:36;14.30;79.00
12704;DHT22;6416;52.182;7.650;2023-04-01T17:34:13;14.30;79.90
12704;DHT22;6416;52.182;7.650;2023-04-01T17:42:11;14.10;80.90
12704;DHT22;6416;52.182;7.650;2023-04-01T17:48:03;14.00;79.70
12704;DHT22;6416;52.182;7.650;2023-04-01T17:50:56;14.00;79.50
12704;DHT22;6416;52.182;7.650;2023-04-01T17:53:43;13.90;79.40
12704;DHT22;6416;52.182;7.650;2023-04-01T17:56:31;13.90;80.50
12704;DHT22;6416;52.182;7.650;2023-04-01T17:59:37;13.80;79.90
12704;DHT22;6416;52.182;7.650;2023-04-01T18:02:42;13.70;78.50
12704;DHT22;6416;52.182;7.650;2023-04-01T18:08:37;13.60;79.40
12704;DHT22;6416;52.182;7.650;2023-04-01T18:16:58;13.40;79.40
12704;DHT22;6416;52.182;7.650;2023-04-01T18:22:44;13.30;79.30
12704;DHT22;6416;52.182;7.650;2023-04-01T18:25:21;13.20;79.60
12704;DHT22;6416;52.182;7.650;2023-04-01T18:27:52;13.10;80.20
12704;DHT22;6416;52.182;7.650;2023-04-01T18:30:28;13.10;80.20
12704;DHT22;6416;52.182;7.650;2023-04-01T18:33:02;13.10;80.10
12704;DHT22;6416;52.182;7.650;2023-04-01T18:36:08;13.10;80.10
12704;DHT22;6416;52.182;7.650;2023-04-01T18:38:52;13.00;79.60
12704;DHT22;6416;52.182;7.650;2023-04-01T18:41:25;13.00;79.50
12704;DHT22;6416;52.182;7.650;2023-04-01T18:44:18;13.00;80.20
12704;DHT22;6416;52.182;7.650;2023-04-01T18:47:19;13.00;79.80
12704;DHT22;6416;52.182;7.650;2023-04-01T18:52:41;12.90;79.90
12704;DHT22;6416;52.182;7.650;2023-04-01T18:57:52;12.90;80.10
12704;DHT22;6416;52.182;7.650;2023-04-01T19:00:32;12.90;80.20
12704;DHT22;6416;52.182;7.650;2023-04-01T19:03:07;12.80;80.10
12704;DHT22;6416;52.182;7.650;2023-04-01T19:05:41;12.80;79.90
12704;DHT22;6416;52.182;7.650;2023-04-01T19:11:10;12.80;79.40
12704;DHT22;6416;52.182;7.650;2023-04-01T19:13:47;12.70;79.40
12704;DHT22;6416;52.182;7.650;2023-04-01T19:19:12;12.60;79.80
12704;DHT22;6416;52.182;7.650;2023-04-01T19:21:47;12.60;79.40
12704;DHT22;6416;52.182;7.650;2023-04-01T19:27:37;12.50;79.00
12704;DHT22;6416;52.182;7.650;2023-04-01T19:38:14;12.30;79.40
12704;DHT22;6416;52.182;7.650;2023-04-01T19:46:44;12.30;79.10
12704;DHT22;6416;52.182;7.650;2023-04-01T19:49:35;12.20;79.60
12704;DHT22;6416;52.182;7.650;2023-04-01T19:52:20;12.20;79.50
12704;DHT22;6416;52.182;7.650;2023-04-01T19:55:06;12.10;78.90
12704;DHT22;6416;52.182;7.650;2023-04-01T19:57:48;12.10;79.10
12704;DHT22;6416;52.182;7.650;2023-04-01T20:00:31;12.10;80.00
12704;DHT22;6416;52.182;7.650;2023-04-01T20:05:51;12.00;80.30
12704;DHT22;6416;52.182;7.650;2023-04-01T20:36:16;11.60;79.40
12704;DHT22;6416;52.182;7.650;2023-04-01T20:39:34;11.60;78.30
12704;DHT22;6416;52.182;7.650;2023-04-01T20:58:16;11.40;77.50
12704;DHT22;6416;52.182;7.650;2023-04-01T21:01:02;11.40;78.40
12704;DHT22;6416;52.182;7.650;2023-04-01T21:11:30;11.30;78.80
12704;DHT22;6416;52.182;7.650;2023-04-01T21:14:25;11.30;78.30
12704;DHT22;6416;52.182;7.650;2023-04-01T21:25:55;11.20;77.50
12704;DHT22;6416;52.182;7.650;2023-04-01T21:29:33;11.20;78.10
12704;DHT22;6416;52.182;7.650;2023-04-01T21:31:41;11.10;78.10
12704;DHT22;6416;52.182;7.650;2023-04-01T21:42:51;11.00;78.00
12704;DHT22;6416;52.182;7.650;2023-04-01T21:53:38;10.90;78.20
12704;DHT22;6416;52.182;7.650;2023-04-01T22:08:08;10.80;78.20
12704;DHT22;6416;52.182;7.650;2023-04-01T22:18:33;10.70;77.30
12704;DHT22;6416;52.182;7.650;2023-04-01T22:26:44;10.70;77.90
12704;DHT22;6416;52.182;7.650;2023-04-01T22:29:26;10.70;77.40
12704;DHT22;6416;52.182;7.650;2023-04-01T22:32:11;10.60;77.50
12704;DHT22;6416;52.182;7.650;2023-04-01T22:43:19;10.50;77.70
12704;DHT22;6416;52.182;7.650;2023-04-01T22:46:03;10.50;77.70
12704;DHT22;6416;52.182;7.650;2023-04-01T22:48:39;10.50;77.40
12704;DHT22;6416;52.182;7.650;2023-04-01T22:51:52;10.40;77.70
12704;DHT22;6416;52.182;7.650;2023-04-01T22:54:15;10.40;77.90
12704;DHT22;6416;52.182;7.650;2023-04-01T22:56:49;10.40;76.90
12704;DHT22;6416;52.182;7.650;2023-04-01T22:59:39;10.40;77.70
12704;DHT22;6416;52.182;7.650;2023-04-01T23:02:18;10.40;77.20
12704;DHT22;6416;52.182;7.650;2023-04-01T23:04:52;10.40;77.10
12704;DHT22;6416;52.182;7.650;2023-04-01T23:09:53;10.30;77.70
12704;DHT22;6416;52.182;7.650;2023-04-01T23:12:21;10.30;77.90
12704;DHT22;6416;52.182;7.650;2023-04-01T23:14:55;10.30;77.90
12704;DHT22;6416;52.182;7.650;2023-04-01T23:17:28;10.20;77.80
12704;DHT22;6416;52.182;7.650;2023-04-01T23:28:55;10.20;77.50
12704;DHT22;6416;52.182;7.650;2023-04-01T23:31:36;10.10;77.40
12704;DHT22;6416;52.182;7.650;2023-04-01T23:36:40;10.10;77.30
12704;DHT22;6416;52.182;7.650;2023-04-01T23:41:40;10.00;77.30
12704;DHT22;6416;52.182;7.650;2023-04-01T23:44:09;10.00;77.50
12704;DHT22;6416;52.182;7.650;2023-04-01T23:46:35;9.90;78.40
12704;DHT22;6416;52.182;7.650;2023-04-01T23:49:03;9.90;78.80
12704;DHT22;6416;52.182;7.650;2023-04-01T23:51:46;9.90;79.00
12704;DHT22;6416;52.182;7.650;2023-04-01T23:54:18;9.90;78.60
12704;DHT22;6416;52.182;7.650;2023-04-01T23:56:47;9.90;78.80
12704;DHT22;6416;52.182;7.650;2023-04-01T23:59:22;9.90;78.70
